createdAt,value
2018-12-23T00:01:55.426Z,96.39
2018-12-23T00:04:23.050Z,96.59
2018-12-23T00:06:50.667Z,96.56
2018-12-23T00:09:18.361Z,95.88
2018-12-23T00:11:45.959Z,96.32
2018-12-23T00:14:13.601Z,95.98
2018-12-23T00:16:41.189Z,96.40
2018-12-23T00:19:08.773Z,96.35
2018-12-23T00:21:36.327Z,96.83
2018-12-23T00:24:03.985Z,96.18
2018-12-23T00:26:31.580Z,96.53
2018-12-23T00:28:59.460Z,96.14
2018-12-23T00:31:27.049Z,96.29
2018-12-23T00:33:54.632Z,96.73
2018-12-23T00:36:22.193Z,96.23
2018-12-23T00:38:49.995Z,96.31
2018-12-23T00:41:17.684Z,96.97
2018-12-23T00:43:45.283Z,96.79
2018-12-23T00:46:12.968Z,96.70
2018-12-23T00:48:40.561Z,96.36
2018-12-23T00:51:08.150Z,96.14
2018-12-23T00:53:35.737Z,96.62
2018-12-23T00:56:03.375Z,96.24
2018-12-23T00:58:30.990Z,96.12
2018-12-23T01:00:58.590Z,96.26
2018-12-23T01:03:26.177Z,96.77
2018-12-23T01:05:53.734Z,96.22
2018-12-23T01:08:21.327Z,95.99
2018-12-23T01:10:48.930Z,96.24
2018-12-23T01:13:16.499Z,95.89
2018-12-23T01:15:44.298Z,95.86
2018-12-23T01:18:11.899Z,96.71
2018-12-23T01:20:39.500Z,96.89
2018-12-23T01:23:07.089Z,96.32
2018-12-23T01:25:34.714Z,96.76
2018-12-23T01:28:02.317Z,96.92
2018-12-23T01:30:29.931Z,96.77
2018-12-23T01:32:57.541Z,97.36
2018-12-23T01:35:25.162Z,97.49
2018-12-23T01:37:52.813Z,97.13
2018-12-23T01:40:20.419Z,97.58
2018-12-23T01:42:47.973Z,96.98
2018-12-23T01:45:15.560Z,97.22
2018-12-23T01:47:43.148Z,97.97
2018-12-23T01:50:11.052Z,97.66
2018-12-23T01:52:38.689Z,97.84
2018-12-23T01:55:06.290Z,98.80
2018-12-23T01:57:33.867Z,98.36
2018-12-23T02:00:01.447Z,99.22
2018-12-23T02:02:29.532Z,99.01
2018-12-23T02:04:57.105Z,98.94
2018-12-23T02:07:24.649Z,99.08
2018-12-23T02:09:52.235Z,98.99
2018-12-23T02:12:19.793Z,99.62
2018-12-23T02:14:47.457Z,99.13
2018-12-23T02:17:15.086Z,99.71
2018-12-23T02:19:42.728Z,99.39
2018-12-23T02:22:10.317Z,99.70
2018-12-23T02:24:38.002Z,99.37
2018-12-23T02:27:05.644Z,99.48
2018-12-23T02:29:33.229Z,99.75
2018-12-23T02:32:00.834Z,99.40
2018-12-23T02:34:28.447Z,99.44
2018-12-23T02:36:56.050Z,100.00
2018-12-23T02:39:23.634Z,100.00
2018-12-23T02:41:51.235Z,100.00
2018-12-23T02:44:18.876Z,100.00
2018-12-23T02:46:46.428Z,100.00
2018-12-23T02:49:13.992Z,100.00
2018-12-23T02:51:41.576Z,100.00
2018-12-23T02:54:09.200Z,100.00
2018-12-23T02:56:36.806Z,100.00
2018-12-23T02:59:04.502Z,100.00
2018-12-23T03:01:32.135Z,100.00
2018-12-23T03:03:59.752Z,100.00
2018-12-23T03:06:27.474Z,100.00
2018-12-23T03:08:55.181Z,100.00
2018-12-23T03:11:22.743Z,100.00
2018-12-23T03:13:50.647Z,100.00
2018-12-23T03:16:18.232Z,100.00
2018-12-23T03:18:45.834Z,100.00
2018-12-23T03:21:13.432Z,100.00
2018-12-23T03:23:40.984Z,100.00
2018-12-23T03:26:08.634Z,100.00
2018-12-23T03:28:36.199Z,100.00
2018-12-23T03:31:04.079Z,100.00
2018-12-23T03:33:31.659Z,100.00
2018-12-23T03:35:59.270Z,100.00
2018-12-23T03:38:26.908Z,100.00
2018-12-23T03:40:54.561Z,100.00
2018-12-23T03:43:22.153Z,100.00
2018-12-23T03:45:49.802Z,100.00
2018-12-23T03:48:17.715Z,100.00
2018-12-23T03:50:45.359Z,100.00
2018-12-23T03:53:13.233Z,100.00
2018-12-23T03:55:40.860Z,100.00
2018-12-23T03:58:08.443Z,100.00
2018-12-23T04:00:36.347Z,100.00
2018-12-23T04:03:04.064Z,100.00
2018-12-23T04:05:31.754Z,100.00
2018-12-23T04:07:59.345Z,100.00
2018-12-23T04:10:26.924Z,100.00
2018-12-23T04:12:54.487Z,100.00
2018-12-23T04:15:22.109Z,100.00
2018-12-23T04:17:49.687Z,100.00
2018-12-23T04:20:17.369Z,100.00
2018-12-23T04:22:44.965Z,100.00
2018-12-23T04:25:12.569Z,100.00
2018-12-23T04:27:40.189Z,100.00
2018-12-23T04:30:07.805Z,100.00
2018-12-23T04:32:35.474Z,100.00
2018-12-23T04:35:03.027Z,100.00
2018-12-23T04:37:30.704Z,100.00
2018-12-23T04:39:58.358Z,100.00
2018-12-23T04:42:26.012Z,100.00
2018-12-23T04:44:53.878Z,100.00
2018-12-23T04:47:21.478Z,100.00
2018-12-23T04:49:49.020Z,100.00
2018-12-23T04:52:16.569Z,100.00
2018-12-23T04:54:44.514Z,100.00
2018-12-23T04:57:12.090Z,100.00
2018-12-23T04:59:39.687Z,100.00
2018-12-23T05:02:07.290Z,100.00
2018-12-23T05:04:34.883Z,100.00
2018-12-23T05:07:02.438Z,100.00
2018-12-23T05:09:29.993Z,100.00
2018-12-23T05:11:57.614Z,100.00
2018-12-23T05:14:25.271Z,100.00
2018-12-23T05:16:52.871Z,100.00
2018-12-23T05:19:20.489Z,100.00
2018-12-23T05:21:48.152Z,100.00
2018-12-23T05:24:16.372Z,100.00
2018-12-23T05:26:43.939Z,100.00
2018-12-23T05:29:11.901Z,100.00
2018-12-23T05:31:39.446Z,100.00
2018-12-23T05:34:07.143Z,100.00
2018-12-23T05:36:34.705Z,100.00
2018-12-23T05:39:02.647Z,100.00
2018-12-23T05:41:30.245Z,100.00
2018-12-23T05:43:58.083Z,100.00
2018-12-23T05:46:26.210Z,100.00
2018-12-23T05:48:53.833Z,100.00
2018-12-23T05:51:21.621Z,100.00
2018-12-23T05:53:49.303Z,100.00
2018-12-23T05:56:17.224Z,100.00
2018-12-23T05:58:44.830Z,100.00
2018-12-23T06:01:12.543Z,100.00
2018-12-23T06:03:40.237Z,100.00
2018-12-23T06:06:07.793Z,100.00
2018-12-23T06:08:35.391Z,100.00
2018-12-23T06:11:03.615Z,100.00
2018-12-23T06:13:31.363Z,100.00
2018-12-23T06:15:59.093Z,100.00
2018-12-23T06:18:26.864Z,100.00
2018-12-23T06:20:54.522Z,100.00
2018-12-23T06:23:22.598Z,100.00
2018-12-23T06:25:50.198Z,100.00
2018-12-23T06:28:17.993Z,100.00
2018-12-23T06:30:45.545Z,100.00
2018-12-23T06:33:13.226Z,100.00
2018-12-23T06:35:40.877Z,100.00
2018-12-23T06:38:08.457Z,100.00
2018-12-23T06:40:36.019Z,100.00
2018-12-23T06:43:03.678Z,100.00
2018-12-23T06:45:31.604Z,100.00
2018-12-23T06:47:59.284Z,100.00
2018-12-23T06:50:26.828Z,100.00
2018-12-23T06:52:54.436Z,100.00
2018-12-23T06:55:22.156Z,100.00
2018-12-23T06:57:49.815Z,100.00
2018-12-23T07:00:17.424Z,100.00
2018-12-23T07:02:45.364Z,100.00
2018-12-23T07:05:12.968Z,100.00
2018-12-23T07:07:40.569Z,100.00
2018-12-23T07:10:08.683Z,100.00
2018-12-23T07:12:36.255Z,100.00
2018-12-23T07:15:04.223Z,100.00
2018-12-23T07:17:31.788Z,100.00
2018-12-23T07:19:59.389Z,100.00
2018-12-23T07:22:27.204Z,100.00
2018-12-23T07:24:54.881Z,100.00
2018-12-23T07:27:22.533Z,100.00
2018-12-23T07:29:50.097Z,100.00
2018-12-23T07:32:17.673Z,100.00
2018-12-23T07:34:45.313Z,100.00
2018-12-23T07:37:12.889Z,100.00
2018-12-23T07:39:40.691Z,100.00
2018-12-23T07:42:08.395Z,100.00
2018-12-23T07:44:36.008Z,100.00
2018-12-23T07:47:03.629Z,100.00
2018-12-23T07:49:31.589Z,100.00
2018-12-23T07:51:59.274Z,100.00
2018-12-23T07:54:27.017Z,100.00
2018-12-23T07:56:54.672Z,100.00
2018-12-23T07:59:22.852Z,100.00
2018-12-23T08:01:51.939Z,100.00
2018-12-23T08:04:19.758Z,100.00
2018-12-23T08:06:47.679Z,100.00
2018-12-23T08:09:15.952Z,100.00
2018-12-23T08:11:44.305Z,100.00
2018-12-23T08:14:12.184Z,100.00
2018-12-23T08:16:39.960Z,100.00
2018-12-23T08:19:07.529Z,100.00
2018-12-23T08:21:35.191Z,100.00
2018-12-23T08:24:02.768Z,100.00
2018-12-23T08:26:30.362Z,100.00
2018-12-23T08:28:58.108Z,100.00
2018-12-23T08:31:25.733Z,100.00
2018-12-23T08:33:53.322Z,100.00
2018-12-23T08:36:20.975Z,100.00
2018-12-23T08:38:48.651Z,100.00
2018-12-23T08:41:16.487Z,100.00
2018-12-23T08:43:44.065Z,100.00
2018-12-23T08:46:11.863Z,100.00
2018-12-23T08:48:39.511Z,100.00
2018-12-23T08:51:07.134Z,100.00
2018-12-23T08:53:34.740Z,100.00
2018-12-23T08:56:02.486Z,100.00
2018-12-23T08:58:30.134Z,100.00
2018-12-23T09:00:57.750Z,100.00
2018-12-23T09:03:25.373Z,100.00
2018-12-23T09:05:53.723Z,100.00
2018-12-23T09:08:21.603Z,100.00
2018-12-23T09:10:49.492Z,100.00
2018-12-23T09:13:17.099Z,100.00
2018-12-23T09:15:44.713Z,100.00
2018-12-23T09:18:19.331Z,99.78
2018-12-23T09:20:42.323Z,99.29
2018-12-23T09:23:09.929Z,98.99
2018-12-23T09:25:37.478Z,99.24
2018-12-23T09:28:05.136Z,99.26
2018-12-23T09:30:32.783Z,99.42
2018-12-23T09:33:00.366Z,99.13
2018-12-23T09:35:27.967Z,98.76
2018-12-23T09:38:01.429Z,98.67
2018-12-23T09:40:25.339Z,98.21
2018-12-23T09:42:53.036Z,97.70
2018-12-23T09:45:20.837Z,97.60
2018-12-23T09:47:48.798Z,97.44
2018-12-23T09:50:16.483Z,97.98
2018-12-23T09:52:44.389Z,97.18
2018-12-23T09:55:12.320Z,97.50
2018-12-23T09:57:40.236Z,96.73
2018-12-23T10:00:08.377Z,97.56
2018-12-23T10:02:35.989Z,97.40
2018-12-23T10:05:03.668Z,96.98
2018-12-23T10:07:31.269Z,97.21
2018-12-23T10:09:58.872Z,97.50
2018-12-23T10:12:26.832Z,97.60
2018-12-23T10:14:54.580Z,98.55
2018-12-23T10:17:22.183Z,98.06
2018-12-23T10:19:50.245Z,98.12
2018-12-23T10:22:19.049Z,97.45
2018-12-23T10:24:46.755Z,97.25
2018-12-23T10:27:14.407Z,97.00
2018-12-23T10:29:42.261Z,95.67
2018-12-23T10:32:11.061Z,95.68
2018-12-23T10:34:38.655Z,95.56
2018-12-23T10:37:06.243Z,96.11
2018-12-23T10:39:33.904Z,96.05
2018-12-23T10:42:01.698Z,95.32
2018-12-23T10:44:29.445Z,95.02
2018-12-23T10:46:57.194Z,95.78
2018-12-23T10:49:24.805Z,95.61
2018-12-23T10:51:52.798Z,95.42
2018-12-23T10:54:20.392Z,94.46
2018-12-23T10:56:47.989Z,95.17
2018-12-23T10:59:15.586Z,94.28
2018-12-23T11:01:43.146Z,94.14
2018-12-23T11:04:11.463Z,94.47
2018-12-23T11:06:39.090Z,93.71
2018-12-23T11:09:06.744Z,92.24
2018-12-23T11:11:34.541Z,91.54
2018-12-23T11:14:02.280Z,91.78
2018-12-23T11:16:59.596Z,91.61
2018-12-23T11:19:28.295Z,91.67
2018-12-23T11:21:57.332Z,91.61
2018-12-23T11:24:26.098Z,92.30
2018-12-23T11:26:54.781Z,93.13
2018-12-23T11:29:23.798Z,93.92
2018-12-23T11:31:52.427Z,94.33
2018-12-23T11:34:21.575Z,94.86
2018-12-23T11:36:50.336Z,95.88
2018-12-23T11:39:19.026Z,96.15
2018-12-23T11:41:47.712Z,96.32
2018-12-23T11:44:16.396Z,96.45
2018-12-23T11:46:44.989Z,96.79
2018-12-23T11:49:13.591Z,96.51
2018-12-23T11:51:42.340Z,96.78
2018-12-23T11:54:10.899Z,96.85
2018-12-23T11:56:39.518Z,96.97
2018-12-23T11:59:08.488Z,96.82
2018-12-23T12:01:37.199Z,96.65
2018-12-23T12:04:05.985Z,96.78
2018-12-23T12:06:34.587Z,96.31
2018-12-23T12:11:52.350Z,95.68
2018-12-23T12:14:20.930Z,95.28
2018-12-23T12:19:46.438Z,95.26
2018-12-23T12:22:14.995Z,95.78
2018-12-23T12:24:43.716Z,95.77
2018-12-23T12:27:12.372Z,95.47
2018-12-23T12:29:40.915Z,95.78
2018-12-23T12:32:09.564Z,96.30
2018-12-23T12:34:38.184Z,96.41
2018-12-23T12:37:06.839Z,96.31
2018-12-23T12:39:35.424Z,96.38
2018-12-23T12:42:04.062Z,96.63
2018-12-23T12:44:32.737Z,96.74
2018-12-23T12:47:01.364Z,96.74
2018-12-23T12:49:30.041Z,96.91
2018-12-23T12:54:47.795Z,97.24
2018-12-23T12:57:16.395Z,97.05
2018-12-23T12:59:44.907Z,96.80
2018-12-23T13:02:13.480Z,95.59
2018-12-23T13:04:42.087Z,95.76
2018-12-23T13:07:10.668Z,95.72
2018-12-23T13:09:39.435Z,94.29
2018-12-23T13:12:08.064Z,94.71
2018-12-23T13:14:36.755Z,94.90
2018-12-23T13:17:05.429Z,94.94
2018-12-23T13:19:33.982Z,94.85
2018-12-23T13:22:02.641Z,94.88
2018-12-23T13:24:31.335Z,94.87
2018-12-23T13:26:59.970Z,94.27
2018-12-23T13:29:28.583Z,94.45
2018-12-23T13:31:57.197Z,94.51
2018-12-23T13:34:25.827Z,94.54
2018-12-23T13:36:54.882Z,94.53
2018-12-23T13:39:23.829Z,94.75
2018-12-23T13:42:31.343Z,94.88
2018-12-23T13:45:38.629Z,95.12
2018-12-23T13:48:47.464Z,95.17
2018-12-23T13:51:54.949Z,95.43
2018-12-23T13:55:03.540Z,95.38
2018-12-23T13:58:12.380Z,94.80
2018-12-23T14:01:04.771Z,95.02
2018-12-23T14:04:15.147Z,95.05
2018-12-23T14:07:22.474Z,95.50
2018-12-23T14:10:29.786Z,95.96
2018-12-23T14:15:34.144Z,96.24
2018-12-23T14:18:02.983Z,96.24
2018-12-23T14:20:31.527Z,96.29
2018-12-23T14:23:00.282Z,96.41
2018-12-23T14:25:28.983Z,96.55
2018-12-23T14:27:57.712Z,96.65
2018-12-23T14:30:26.484Z,96.46
2018-12-23T14:32:55.425Z,96.66
2018-12-23T14:35:23.995Z,96.51
2018-12-23T14:38:05.335Z,96.49
2018-12-23T14:40:23.497Z,95.75
2018-12-23T14:42:52.543Z,95.16
2018-12-23T14:45:21.395Z,95.29
2018-12-23T14:47:50.110Z,95.07
2018-12-23T14:50:18.901Z,95.43
2018-12-23T14:52:47.707Z,94.78
2018-12-23T14:55:16.592Z,95.23
2018-12-23T14:57:45.261Z,95.20
2018-12-23T15:00:13.920Z,95.31
2018-12-23T15:02:42.849Z,94.94
2018-12-23T15:05:11.596Z,95.43
2018-12-23T15:07:40.285Z,95.34
2018-12-23T15:10:48.941Z,95.33
2018-12-23T15:13:18.103Z,95.21
2018-12-23T15:15:47.164Z,95.18
2018-12-23T15:18:17.751Z,95.39
2018-12-23T15:20:46.395Z,95.60
2018-12-23T15:23:14.967Z,95.91
2018-12-23T15:25:43.754Z,96.52
2018-12-23T15:28:12.343Z,97.23
2018-12-23T15:30:41.609Z,97.76
2018-12-23T15:33:10.755Z,97.94
2018-12-23T15:35:39.417Z,98.33
2018-12-23T15:38:08.106Z,98.48
2018-12-23T15:40:37.392Z,98.79
2018-12-23T15:43:06.264Z,98.69
2018-12-23T15:45:35.070Z,98.61
2018-12-23T15:48:03.800Z,98.65
2018-12-23T15:50:32.475Z,98.50
2018-12-23T15:53:01.408Z,98.49
2018-12-23T15:55:30.098Z,98.29
2018-12-23T15:57:58.745Z,98.23
2018-12-23T16:00:27.601Z,98.07
2018-12-23T16:02:56.316Z,97.74
2018-12-23T16:05:25.419Z,97.95
2018-12-23T16:07:54.171Z,96.71
2018-12-23T16:10:22.920Z,96.79
2018-12-23T16:12:51.789Z,96.79
2018-12-23T16:15:20.514Z,96.85
2018-12-23T16:17:49.306Z,96.83
2018-12-23T16:20:17.897Z,97.00
2018-12-23T16:22:46.659Z,97.14
2018-12-23T16:25:15.581Z,97.19
2018-12-23T16:27:44.237Z,97.40
2018-12-23T16:30:13.093Z,97.32
2018-12-23T16:32:41.956Z,97.37
2018-12-23T16:35:10.644Z,97.25
2018-12-23T16:37:39.310Z,97.38
2018-12-23T16:40:29.006Z,97.50
2018-12-23T16:42:57.727Z,97.78
2018-12-23T16:45:26.314Z,97.47
2018-12-23T16:47:54.909Z,97.75
2018-12-23T16:50:23.545Z,98.21
2018-12-23T16:52:52.167Z,98.34
2018-12-23T16:55:20.782Z,98.34
2018-12-23T16:57:49.408Z,98.45
2018-12-23T17:00:18.061Z,98.70
2018-12-23T17:02:46.787Z,98.79
2018-12-23T17:05:15.543Z,98.81
2018-12-23T17:07:44.170Z,98.69
2018-12-23T17:10:12.894Z,98.63
2018-12-23T17:12:41.654Z,98.97
2018-12-23T17:15:10.449Z,98.67
2018-12-23T17:17:39.166Z,98.60
2018-12-23T17:20:47.772Z,98.49
2018-12-23T17:23:16.472Z,98.58
2018-12-23T17:25:45.109Z,98.46
2018-12-23T17:28:13.877Z,98.24
2018-12-23T17:31:01.934Z,98.31
2018-12-23T17:33:30.616Z,98.27
2018-12-23T17:35:59.323Z,98.08
2018-12-23T17:38:27.939Z,98.14
2018-12-23T17:40:56.555Z,98.25
2018-12-23T17:43:25.982Z,98.22
2018-12-23T17:45:54.769Z,98.41
2018-12-23T17:48:23.381Z,98.17
2018-12-23T17:50:52.080Z,98.13
2018-12-23T17:53:20.851Z,98.05
2018-12-23T17:55:49.534Z,98.13
2018-12-23T17:58:18.225Z,98.16
2018-12-23T18:00:47.003Z,98.11
2018-12-23T18:03:15.729Z,98.25
2018-12-23T18:05:44.272Z,98.31
2018-12-23T18:08:12.932Z,98.43
2018-12-23T18:10:41.749Z,98.30
2018-12-23T18:13:10.413Z,98.25
2018-12-23T18:15:39.139Z,97.99
2018-12-23T18:18:07.911Z,98.10
2018-12-23T18:20:36.497Z,98.32
2018-12-23T18:23:05.219Z,98.46
2018-12-23T18:25:33.840Z,98.30
2018-12-23T18:28:02.911Z,98.24
2018-12-23T18:30:31.902Z,98.17
2018-12-23T18:33:00.608Z,98.33
2018-12-23T18:35:29.337Z,98.40
2018-12-23T18:37:58.136Z,98.46
2018-12-23T18:40:33.327Z,98.06
2018-12-23T18:42:57.216Z,98.18
2018-12-23T18:45:25.795Z,98.32
2018-12-23T18:47:54.514Z,98.39
2018-12-23T18:50:23.570Z,98.40
2018-12-23T18:52:52.343Z,98.43
2018-12-23T18:55:21.035Z,98.36
2018-12-23T18:57:49.770Z,98.57
2018-12-23T19:00:18.476Z,98.67
2018-12-23T19:02:47.232Z,98.46
2018-12-23T19:05:15.957Z,98.64
2018-12-23T19:07:44.802Z,98.49
2018-12-23T19:14:04.448Z,98.93
2018-12-23T19:17:13.043Z,98.85
2018-12-23T19:20:20.806Z,98.91
2018-12-23T19:23:29.421Z,98.88
2018-12-23T19:26:38.081Z,98.86
2018-12-23T19:29:45.461Z,99.06
2018-12-23T19:32:54.138Z,99.24
2018-12-23T19:39:13.313Z,99.40
2018-12-23T19:42:20.644Z,99.35
2018-12-23T19:45:29.290Z,99.42
2018-12-23T19:48:36.474Z,99.32
2018-12-23T19:51:45.188Z,99.56
2018-12-23T19:54:53.907Z,99.57
2018-12-23T19:58:02.622Z,99.55
2018-12-23T20:01:09.983Z,99.46
2018-12-23T20:04:18.592Z,99.59
2018-12-23T20:07:27.258Z,99.33
2018-12-23T20:10:34.989Z,99.49
2018-12-23T20:13:42.267Z,99.28
2018-12-23T20:16:51.043Z,99.38
2018-12-23T20:19:58.719Z,99.48
2018-12-23T20:23:07.270Z,99.59
2018-12-23T20:26:15.439Z,99.30
2018-12-23T20:29:22.974Z,99.05
2018-12-23T20:32:30.373Z,99.23
2018-12-23T20:35:37.706Z,99.35
2018-12-23T20:38:45.225Z,99.46
2018-12-23T20:41:52.555Z,99.41
2018-12-23T20:45:01.517Z,99.23
2018-12-23T20:48:10.583Z,99.40
2018-12-23T20:51:19.669Z,99.59
2018-12-23T20:54:29.452Z,99.65
2018-12-23T20:57:36.695Z,99.62
2018-12-23T21:00:44.047Z,99.78
2018-12-23T21:03:52.671Z,99.36
2018-12-23T21:07:00.018Z,99.74
2018-12-23T21:10:08.628Z,99.65
2018-12-23T21:13:15.967Z,99.83
2018-12-23T21:16:24.071Z,99.97
2018-12-23T21:19:31.363Z,99.86
2018-12-23T21:22:38.806Z,100.00
2018-12-23T21:25:46.061Z,99.72
2018-12-23T21:28:53.468Z,100.00
2018-12-23T21:32:01.062Z,100.00
2018-12-23T21:35:08.405Z,100.00
2018-12-23T21:38:17.009Z,100.00
2018-12-23T21:41:25.597Z,100.00
2018-12-23T21:44:32.908Z,100.00
2018-12-23T21:47:41.635Z,100.00
2018-12-23T21:50:49.047Z,100.00
2018-12-23T21:53:56.631Z,100.00
2018-12-23T21:57:05.284Z,100.00
2018-12-23T22:00:12.665Z,100.00
2018-12-23T22:03:20.145Z,99.97
2018-12-23T22:06:27.438Z,99.68
2018-12-23T22:09:35.993Z,99.69
2018-12-23T22:12:43.318Z,99.87
2018-12-23T22:15:12.055Z,99.88
2018-12-23T22:17:40.613Z,99.90
2018-12-23T22:20:09.460Z,99.92
2018-12-23T22:22:38.104Z,100.00
2018-12-23T22:25:06.762Z,99.92
2018-12-23T22:27:35.427Z,99.79
2018-12-23T22:32:59.411Z,99.94
2018-12-23T22:35:29.433Z,100.00
2018-12-23T22:37:57.999Z,100.00
2018-12-23T22:40:26.812Z,99.98
2018-12-23T22:42:55.515Z,99.94
2018-12-23T22:45:24.198Z,99.87
2018-12-23T22:47:52.894Z,99.90
2018-12-23T22:50:21.502Z,100.00
2018-12-23T22:52:50.220Z,99.91
2018-12-23T22:55:18.821Z,99.99
2018-12-23T22:57:47.457Z,99.91
2018-12-23T23:00:56.077Z,99.95
2018-12-23T23:03:24.958Z,99.90
2018-12-23T23:05:53.614Z,99.90
2018-12-23T23:08:22.273Z,99.90
2018-12-23T23:10:50.816Z,99.91
2018-12-23T23:13:19.505Z,100.00
2018-12-23T23:15:48.569Z,99.75
2018-12-23T23:18:17.652Z,99.82
2018-12-23T23:20:46.649Z,99.65
2018-12-23T23:23:15.281Z,99.73
2018-12-23T23:25:44.049Z,99.77
2018-12-23T23:28:12.648Z,99.84
2018-12-23T23:30:41.291Z,99.90
2018-12-23T23:33:10.021Z,99.57
2018-12-23T23:35:38.596Z,99.55
2018-12-23T23:38:07.165Z,99.18
2018-12-23T23:40:35.783Z,99.11
2018-12-23T23:43:04.350Z,99.16
2018-12-23T23:45:32.928Z,98.90
2018-12-23T23:48:01.558Z,98.55
2018-12-23T23:50:49.423Z,98.83
2018-12-23T23:53:18.109Z,99.18
2018-12-23T23:55:46.665Z,99.40
2018-12-23T23:58:15.277Z,99.46
